createdAt,value
2022-10-14T00:00:56.509Z,0.00
2022-10-14T00:01:56.568Z,0.00
2022-10-14T00:02:56.562Z,0.00
2022-10-14T00:03:56.583Z,0.00
2022-10-14T00:04:56.610Z,0.00
2022-10-14T00:05:56.634Z,0.00
2022-10-14T00:06:56.656Z,0.00
2022-10-14T00:07:56.684Z,0.00
2022-10-14T00:08:56.705Z,0.00
2022-10-14T00:09:56.754Z,0.00
2022-10-14T00:10:56.750Z,0.00
2022-10-14T00:11:56.776Z,0.00
2022-10-14T00:12:56.801Z,0.00
2022-10-14T00:13:56.860Z,0.00
2022-10-14T00:14:56.851Z,0.00
2022-10-14T00:15:56.879Z,0.00
2022-10-14T00:16:56.902Z,0.00
2022-10-14T00:17:56.926Z,0.00
2022-10-14T00:18:56.951Z,0.00
2022-10-14T00:19:57.000Z,0.00
2022-10-14T00:20:57.002Z,0.00
2022-10-14T00:21:57.026Z,0.00
2022-10-14T00:22:57.052Z,0.00
2022-10-14T00:23:57.095Z,0.00
2022-10-14T00:24:57.103Z,0.00
2022-10-14T00:25:57.132Z,0.00
2022-10-14T00:26:57.151Z,0.00
2022-10-14T00:27:57.172Z,0.00
2022-10-14T00:28:57.331Z,0.00
2022-10-14T00:29:57.222Z,0.00
2022-10-14T00:30:57.246Z,0.00
2022-10-14T00:31:57.271Z,0.00
2022-10-14T00:32:57.294Z,0.00
2022-10-14T00:33:57.320Z,0.00
2022-10-14T00:34:57.351Z,0.00
2022-10-14T00:35:57.375Z,0.00
2022-10-14T00:36:57.400Z,0.00
2022-10-14T00:37:57.417Z,0.00
2022-10-14T00:38:57.447Z,0.00
2022-10-14T00:39:57.470Z,0.00
2022-10-14T00:40:57.492Z,0.00
2022-10-14T00:41:57.516Z,0.00
2022-10-14T00:42:57.541Z,0.00
2022-10-14T00:43:57.569Z,0.00
2022-10-14T00:44:57.591Z,0.00
2022-10-14T00:45:57.616Z,0.00
2022-10-14T00:46:57.680Z,0.00
2022-10-14T00:47:57.671Z,0.00
2022-10-14T00:48:57.688Z,0.00
2022-10-14T00:49:57.715Z,0.00
2022-10-14T00:50:57.737Z,0.00
2022-10-14T00:51:57.763Z,0.00
2022-10-14T00:52:57.793Z,0.00
2022-10-14T00:53:57.812Z,0.00
2022-10-14T00:54:57.838Z,0.00
2022-10-14T00:55:57.867Z,0.00
2022-10-14T00:56:57.888Z,0.00
2022-10-14T00:57:57.934Z,0.00
2022-10-14T00:58:57.935Z,0.00
2022-10-14T00:59:57.961Z,0.00
2022-10-14T01:00:58.084Z,0.00
2022-10-14T01:01:58.014Z,0.00
2022-10-14T01:02:58.034Z,0.00
2022-10-14T01:03:58.061Z,0.00
2022-10-14T01:04:58.082Z,0.00
2022-10-14T01:05:58.110Z,0.00
2022-10-14T01:06:58.131Z,0.00
2022-10-14T01:07:58.175Z,0.00
2022-10-14T01:08:58.187Z,0.00
2022-10-14T01:09:58.209Z,0.00
2022-10-14T01:10:58.237Z,0.00
2022-10-14T01:12:23.602Z,0.00
2022-10-14T01:12:58.279Z,0.00
2022-10-14T01:13:58.306Z,0.00
2022-10-14T01:14:58.332Z,0.00
2022-10-14T01:15:58.356Z,0.00
2022-10-14T01:16:58.378Z,0.00
2022-10-14T01:17:58.406Z,0.00
2022-10-14T01:18:58.432Z,0.00
2022-10-14T01:19:58.456Z,0.00
2022-10-14T01:20:58.476Z,0.00
2022-10-14T01:21:58.503Z,0.00
2022-10-14T01:22:58.535Z,0.00
2022-10-14T01:23:58.553Z,0.00
2022-10-14T01:24:58.584Z,0.00
2022-10-14T01:25:58.602Z,0.00
2022-10-14T01:26:58.628Z,0.00
2022-10-14T01:27:58.671Z,0.00
2022-10-14T01:28:58.740Z,0.00
2022-10-14T01:29:58.714Z,0.00
2022-10-14T01:30:58.727Z,0.00
2022-10-14T01:31:58.756Z,0.00
2022-10-14T01:32:58.787Z,0.00
2022-10-14T01:33:58.797Z,0.00
2022-10-14T01:34:58.829Z,0.00
2022-10-14T01:35:58.850Z,0.00
2022-10-14T01:36:58.875Z,0.00
2022-10-14T01:37:58.904Z,0.00
2022-10-14T01:38:58.921Z,0.00
2022-10-14T01:39:58.948Z,0.00
2022-10-14T01:40:58.977Z,0.00
2022-10-14T01:41:59.003Z,0.00
2022-10-14T01:42:59.023Z,0.00
2022-10-14T01:43:59.047Z,0.00
2022-10-14T01:44:59.117Z,0.00
2022-10-14T01:45:59.100Z,0.00
2022-10-14T01:46:59.182Z,0.00
2022-10-14T01:48:06.314Z,0.00
2022-10-14T01:50:03.643Z,0.00
2022-10-14T01:51:03.211Z,0.00
2022-10-14T01:52:56.191Z,0.00
2022-10-14T01:53:56.180Z,0.00
2022-10-14T01:56:01.172Z,0.00
2022-10-14T01:57:00.218Z,0.00
2022-10-14T01:59:04.716Z,0.00
2022-10-14T02:00:04.727Z,0.00
2022-10-14T02:01:04.755Z,0.00
2022-10-14T02:02:04.829Z,0.00
2022-10-14T02:03:04.802Z,0.00
2022-10-14T02:04:04.829Z,0.00
2022-10-14T02:05:04.864Z,0.00
2022-10-14T02:06:04.872Z,0.00
2022-10-14T02:07:04.900Z,0.00
2022-10-14T02:08:04.923Z,0.00
2022-10-14T02:09:04.949Z,0.00
2022-10-14T02:10:04.972Z,0.00
2022-10-14T02:11:04.998Z,0.00
2022-10-14T02:12:05.020Z,0.00
2022-10-14T02:13:05.050Z,0.00
2022-10-14T02:14:05.074Z,0.00
2022-10-14T02:15:05.106Z,0.00
2022-10-14T02:16:05.119Z,0.00
2022-10-14T02:17:05.150Z,0.00
2022-10-14T02:18:05.169Z,0.00
2022-10-14T02:19:05.196Z,0.00
2022-10-14T02:20:05.264Z,0.00
2022-10-14T02:21:05.247Z,0.00
2022-10-14T02:22:05.276Z,0.00
2022-10-14T02:23:05.292Z,0.00
2022-10-14T02:24:05.320Z,0.00
2022-10-14T02:25:05.341Z,0.00
2022-10-14T02:26:05.366Z,0.00
2022-10-14T02:27:05.394Z,0.00
2022-10-14T02:28:05.414Z,0.00
2022-10-14T02:29:05.442Z,0.00
2022-10-14T02:30:05.467Z,0.00
2022-10-14T02:31:05.497Z,0.00
2022-10-14T02:32:05.515Z,0.00
2022-10-14T02:33:05.545Z,0.00
2022-10-14T02:34:05.565Z,0.00
2022-10-14T02:35:05.590Z,0.00
2022-10-14T02:36:05.611Z,0.00
2022-10-14T02:37:05.638Z,0.00
2022-10-14T02:38:05.665Z,0.00
2022-10-14T02:39:05.690Z,0.00
2022-10-14T02:40:05.713Z,0.00
2022-10-14T02:41:05.743Z,0.00
2022-10-14T02:42:05.763Z,0.00
2022-10-14T02:43:05.788Z,0.00
2022-10-14T02:44:05.811Z,0.00
2022-10-14T02:45:05.837Z,0.00
2022-10-14T02:46:05.883Z,0.00
2022-10-14T02:47:05.887Z,0.00
2022-10-14T02:48:05.934Z,0.00
2022-10-14T02:49:05.933Z,0.00
2022-10-14T02:50:05.961Z,0.00
2022-10-14T02:51:05.989Z,0.00
2022-10-14T02:52:06.079Z,0.00
2022-10-14T02:53:06.049Z,0.00
2022-10-14T02:54:06.073Z,0.00
2022-10-14T02:55:06.083Z,0.00
2022-10-14T02:56:06.109Z,0.00
2022-10-14T02:57:06.150Z,0.00
2022-10-14T02:58:06.152Z,0.00
2022-10-14T02:59:06.179Z,0.00
2022-10-14T03:00:06.204Z,0.00
2022-10-14T03:01:06.231Z,0.00
2022-10-14T03:02:06.284Z,0.00
2022-10-14T03:03:06.281Z,0.00
2022-10-14T03:04:06.305Z,0.00
2022-10-14T03:05:06.329Z,0.00
2022-10-14T03:06:06.354Z,0.00
2022-10-14T03:07:06.374Z,0.00
2022-10-14T03:08:06.400Z,0.00
2022-10-14T03:09:06.425Z,0.00
2022-10-14T03:10:06.448Z,0.00
2022-10-14T03:11:06.474Z,0.00
2022-10-14T03:12:06.507Z,0.00
2022-10-14T03:13:06.531Z,0.00
2022-10-14T03:14:06.563Z,0.00
2022-10-14T03:15:06.579Z,0.00
2022-10-14T03:16:06.602Z,0.00
2022-10-14T03:17:06.652Z,0.00
2022-10-14T03:18:06.648Z,0.00
2022-10-14T03:19:06.690Z,0.00
2022-10-14T03:20:06.699Z,0.00
2022-10-14T03:21:06.721Z,0.00
2022-10-14T03:22:06.785Z,0.00
2022-10-14T03:23:06.769Z,0.00
2022-10-14T03:24:06.811Z,0.00
2022-10-14T03:25:06.820Z,0.00
2022-10-14T03:26:10.645Z,0.00
2022-10-14T03:27:06.886Z,0.00
2022-10-14T03:28:06.897Z,0.00
2022-10-14T03:29:06.941Z,0.00
2022-10-14T03:30:06.941Z,0.00
2022-10-14T03:31:06.982Z,0.00
2022-10-14T03:32:07.018Z,0.00
2022-10-14T03:33:07.021Z,0.00
2022-10-14T03:34:07.046Z,0.00
2022-10-14T03:35:07.076Z,0.00
2022-10-14T03:36:07.100Z,0.00
2022-10-14T03:37:07.121Z,0.00
2022-10-14T03:38:07.137Z,0.00
2022-10-14T03:39:07.184Z,0.00
2022-10-14T03:40:07.189Z,0.00
2022-10-14T03:41:07.234Z,0.00
2022-10-14T03:42:07.249Z,0.00
2022-10-14T03:43:07.262Z,0.00
2022-10-14T03:44:07.289Z,0.00
2022-10-14T03:45:07.311Z,0.00
2022-10-14T03:46:07.336Z,0.00
2022-10-14T03:47:07.361Z,0.00
2022-10-14T03:48:07.388Z,0.00
2022-10-14T03:49:07.412Z,0.00
2022-10-14T03:50:07.444Z,0.00
2022-10-14T03:51:07.466Z,0.00
2022-10-14T03:52:07.483Z,0.00
2022-10-14T03:53:07.514Z,0.00
2022-10-14T03:54:07.534Z,0.00
2022-10-14T03:55:07.572Z,0.00
2022-10-14T03:56:07.582Z,0.00
2022-10-14T03:57:07.627Z,0.00
2022-10-14T03:58:07.635Z,0.00
2022-10-14T03:59:07.658Z,0.00
2022-10-14T04:00:07.686Z,0.00
2022-10-14T04:01:07.711Z,0.00
2022-10-14T04:02:07.767Z,0.00
2022-10-14T04:03:07.757Z,0.00
2022-10-14T04:04:07.787Z,0.00
2022-10-14T04:05:07.808Z,0.00
2022-10-14T04:06:07.832Z,0.00
2022-10-14T04:07:07.859Z,0.00
2022-10-14T04:08:07.880Z,0.00
2022-10-14T04:09:07.904Z,0.00
2022-10-14T04:10:07.926Z,0.00
2022-10-14T04:11:07.954Z,0.00
2022-10-14T04:12:07.978Z,0.00
2022-10-14T04:13:08.005Z,0.00
2022-10-14T04:14:08.027Z,0.00
2022-10-14T04:15:08.054Z,0.00
2022-10-14T04:16:08.078Z,0.00
2022-10-14T04:17:08.104Z,0.00
2022-10-14T04:18:08.128Z,0.00
2022-10-14T04:19:08.152Z,0.00
2022-10-14T04:20:08.174Z,0.00
2022-10-14T04:21:08.210Z,0.00
2022-10-14T04:22:08.228Z,0.00
2022-10-14T04:23:08.252Z,0.00
2022-10-14T04:24:08.709Z,0.00
2022-10-14T04:25:08.302Z,0.00
2022-10-14T04:26:08.328Z,0.00
2022-10-14T04:27:08.349Z,0.00
2022-10-14T04:28:08.378Z,0.00
2022-10-14T04:29:08.403Z,0.00
2022-10-14T04:30:08.426Z,0.00
2022-10-14T04:31:08.450Z,0.00
2022-10-14T04:32:08.490Z,0.00
2022-10-14T04:33:08.502Z,0.00
2022-10-14T04:34:08.521Z,0.00
2022-10-14T04:35:08.546Z,0.00
2022-10-14T04:36:08.577Z,0.00
2022-10-14T04:37:08.603Z,0.00
2022-10-14T04:38:08.620Z,0.00
2022-10-14T04:39:08.654Z,0.00
2022-10-14T04:40:08.672Z,0.00
2022-10-14T04:41:08.697Z,0.00
2022-10-14T04:42:08.720Z,0.00
2022-10-14T04:43:08.745Z,0.00
2022-10-14T04:44:08.853Z,0.00
2022-10-14T04:45:08.794Z,0.00
2022-10-14T04:46:08.820Z,0.00
2022-10-14T04:47:08.841Z,0.00
2022-10-14T04:48:08.898Z,0.00
2022-10-14T04:49:08.893Z,0.00
2022-10-14T04:50:08.917Z,0.00
2022-10-14T04:51:08.942Z,0.00
2022-10-14T04:52:08.971Z,0.00
2022-10-14T04:53:13.283Z,0.00
2022-10-14T04:54:09.018Z,0.00
2022-10-14T04:55:09.044Z,0.00
2022-10-14T04:56:09.066Z,0.00
2022-10-14T04:57:09.092Z,0.00
2022-10-14T04:58:09.126Z,0.00
2022-10-14T04:59:09.148Z,0.00
2022-10-14T05:00:09.174Z,0.00
2022-10-14T05:01:09.188Z,0.00
2022-10-14T05:02:09.283Z,0.00
2022-10-14T05:03:09.237Z,0.00
2022-10-14T05:04:09.264Z,0.00
2022-10-14T05:05:09.303Z,0.00
2022-10-14T05:06:09.340Z,0.00
2022-10-14T05:07:09.341Z,0.00
2022-10-14T05:08:09.365Z,0.00
2022-10-14T05:09:09.390Z,0.00
2022-10-14T05:10:09.411Z,0.00
2022-10-14T05:11:09.442Z,0.00
2022-10-14T05:12:09.461Z,0.00
2022-10-14T05:13:09.493Z,0.00
2022-10-14T05:14:09.510Z,0.00
2022-10-14T05:15:09.536Z,0.00
2022-10-14T05:16:09.562Z,0.00
2022-10-14T05:17:09.582Z,0.00
2022-10-14T05:18:09.608Z,0.00
2022-10-14T05:19:09.635Z,0.00
2022-10-14T05:20:09.657Z,0.00
2022-10-14T05:21:09.703Z,0.00
2022-10-14T05:22:09.707Z,0.00
2022-10-14T05:23:09.734Z,4.00
2022-10-14T05:24:09.758Z,0.00
2022-10-14T05:25:09.791Z,4.00
2022-10-14T05:26:09.808Z,4.00
2022-10-14T05:27:09.836Z,4.00
2022-10-14T05:28:09.858Z,4.00
2022-10-14T05:29:09.881Z,4.00
2022-10-14T05:30:09.904Z,4.00
2022-10-14T05:31:09.948Z,4.00
2022-10-14T05:32:09.957Z,12.00
2022-10-14T05:33:09.981Z,12.00
2022-10-14T05:34:10.006Z,16.00
2022-10-14T05:35:10.035Z,16.00
2022-10-14T05:36:10.057Z,16.00
2022-10-14T05:37:10.077Z,20.00
2022-10-14T05:38:10.104Z,24.00
2022-10-14T05:39:10.126Z,28.00
2022-10-14T05:40:10.155Z,32.00
2022-10-14T05:41:10.200Z,32.00
2022-10-14T05:42:10.208Z,32.00
2022-10-14T05:43:10.239Z,36.00
2022-10-14T05:44:10.251Z,48.00
2022-10-14T05:45:10.273Z,56.00
2022-10-14T05:46:10.304Z,52.00
2022-10-14T05:47:10.328Z,48.00
2022-10-14T05:48:10.365Z,40.00
2022-10-14T05:49:10.374Z,40.00
2022-10-14T05:50:10.400Z,48.00
2022-10-14T05:51:10.441Z,52.00
2022-10-14T05:52:10.450Z,52.00
2022-10-14T05:53:10.472Z,64.00
2022-10-14T05:54:10.497Z,76.00
2022-10-14T05:55:10.520Z,88.00
2022-10-14T05:56:10.556Z,100.00
2022-10-14T05:57:10.575Z,112.00
2022-10-14T05:58:10.605Z,124.00
2022-10-14T05:59:10.636Z,132.00
2022-10-14T06:00:10.648Z,140.00
2022-10-14T06:01:10.728Z,148.00
2022-10-14T06:02:10.700Z,160.00
2022-10-14T06:03:10.777Z,192.00
2022-10-14T06:04:10.747Z,244.00
2022-10-14T06:05:10.766Z,264.00
2022-10-14T06:06:10.790Z,280.00
2022-10-14T06:07:10.838Z,328.00
2022-10-14T06:08:10.839Z,348.00
2022-10-14T06:09:11.613Z,364.00
2022-10-14T06:10:10.901Z,456.00
2022-10-14T06:11:10.920Z,544.00
2022-10-14T06:12:10.938Z,636.00
2022-10-14T06:13:10.965Z,716.00
2022-10-14T06:14:10.986Z,764.00
2022-10-14T06:15:11.014Z,804.00
2022-10-14T06:16:11.063Z,860.00
2022-10-14T06:17:11.059Z,908.00
2022-10-14T06:18:11.086Z,968.00
2022-10-14T06:19:11.110Z,1044.00
2022-10-14T06:20:11.153Z,1120.00
2022-10-14T06:21:11.158Z,1192.00
2022-10-14T06:22:11.181Z,1296.00
2022-10-14T06:23:11.226Z,1340.00
2022-10-14T06:24:11.235Z,1376.00
2022-10-14T06:25:11.259Z,1400.00
2022-10-14T06:26:11.290Z,1388.00
2022-10-14T06:27:11.308Z,1344.00
2022-10-14T06:28:11.332Z,1308.00
2022-10-14T06:29:11.354Z,1304.00
2022-10-14T06:30:11.380Z,1344.00
2022-10-14T06:31:11.412Z,1364.00
2022-10-14T06:32:11.428Z,1352.00
2022-10-14T06:33:11.453Z,1384.00
2022-10-14T06:34:11.481Z,1460.00
2022-10-14T06:35:11.499Z,1548.00
2022-10-14T06:36:11.534Z,1540.00
2022-10-14T06:37:11.550Z,1492.00
2022-10-14T06:38:11.576Z,1460.00
2022-10-14T06:39:11.597Z,1416.00
2022-10-14T06:40:11.625Z,1336.00
2022-10-14T06:41:11.664Z,1248.00
2022-10-14T06:42:13.255Z,1164.00
2022-10-14T06:43:11.697Z,1116.00
2022-10-14T06:44:11.729Z,1148.00
2022-10-14T06:45:11.768Z,1140.00
2022-10-14T06:46:11.774Z,1148.00
2022-10-14T06:47:11.800Z,1072.00
2022-10-14T06:48:11.836Z,1012.00
2022-10-14T06:49:11.845Z,1152.00
2022-10-14T06:50:11.873Z,1392.00
2022-10-14T06:51:11.909Z,1528.00
2022-10-14T06:52:11.922Z,1560.00
2022-10-14T06:53:11.962Z,1596.00
2022-10-14T06:54:11.979Z,1776.00
2022-10-14T06:55:12.029Z,1812.00
2022-10-14T06:56:12.033Z,1816.00
2022-10-14T06:57:12.044Z,1828.00
2022-10-14T06:58:12.074Z,1688.00
2022-10-14T06:59:12.092Z,1612.00
2022-10-14T07:00:12.121Z,1724.00
2022-10-14T07:01:12.219Z,1956.00
2022-10-14T07:02:12.168Z,2216.00
2022-10-14T07:03:12.210Z,2300.00
2022-10-14T07:04:12.217Z,2572.00
2022-10-14T07:05:12.270Z,2652.00
2022-10-14T07:06:12.278Z,2448.00
2022-10-14T07:07:12.305Z,2224.00
2022-10-14T07:08:15.247Z,2068.00
2022-10-14T07:09:12.343Z,2112.00
2022-10-14T07:10:12.367Z,2124.00
2022-10-14T07:11:12.395Z,2120.00
2022-10-14T07:12:12.424Z,1992.00
2022-10-14T07:13:12.445Z,2232.00
2022-10-14T07:14:12.466Z,2240.00
2022-10-14T07:15:12.512Z,2304.00
2022-10-14T07:16:12.518Z,2228.00
2022-10-14T07:17:12.538Z,2160.00
2022-10-14T07:18:12.563Z,1992.00
2022-10-14T07:19:12.656Z,1852.00
2022-10-14T07:20:12.616Z,1892.00
2022-10-14T07:21:12.639Z,1628.00
2022-10-14T07:22:12.666Z,1748.00
2022-10-14T07:23:12.688Z,1872.00
2022-10-14T07:24:12.717Z,1748.00
2022-10-14T07:25:12.742Z,2060.00
2022-10-14T07:26:12.765Z,2192.00
2022-10-14T07:27:12.821Z,2416.00
2022-10-14T07:28:12.818Z,2452.00
2022-10-14T07:29:12.844Z,2296.00
2022-10-14T07:30:15.263Z,2136.00
2022-10-14T07:31:12.889Z,1936.00
2022-10-14T07:32:12.914Z,1936.00
2022-10-14T07:33:12.936Z,2216.00
2022-10-14T07:34:12.961Z,2500.00
2022-10-14T07:35:12.987Z,2636.00
2022-10-14T07:36:14.262Z,2468.00
2022-10-14T07:37:13.035Z,2548.00
2022-10-14T07:38:13.063Z,2612.00
2022-10-14T07:39:13.087Z,2760.00
2022-10-14T07:40:13.111Z,3160.00
2022-10-14T07:41:13.136Z,3628.00
2022-10-14T07:42:13.198Z,3648.00
2022-10-14T07:43:13.192Z,3776.00
2022-10-14T07:44:13.211Z,4016.00
2022-10-14T07:45:13.243Z,4472.00
2022-10-14T07:46:13.261Z,4928.00
2022-10-14T07:47:13.294Z,5524.00
2022-10-14T07:48:13.313Z,5256.00
2022-10-14T07:49:13.339Z,4732.00
2022-10-14T07:50:13.369Z,4540.00
2022-10-14T07:51:13.387Z,4240.00
2022-10-14T07:52:13.414Z,4412.00
2022-10-14T07:53:13.438Z,5440.00
2022-10-14T07:54:13.460Z,6128.00
2022-10-14T07:55:13.489Z,6544.00
2022-10-14T07:56:13.515Z,6888.00
2022-10-14T07:57:13.543Z,7344.00
2022-10-14T07:58:13.565Z,7364.00
2022-10-14T07:59:13.589Z,6712.00
2022-10-14T08:00:13.618Z,6680.00
2022-10-14T08:01:13.689Z,6384.00
2022-10-14T08:02:13.726Z,6344.00
2022-10-14T08:03:13.717Z,6740.00
2022-10-14T08:04:13.726Z,6744.00
2022-10-14T08:05:36.500Z,6508.00
2022-10-14T08:06:13.772Z,5504.00
2022-10-14T08:07:13.798Z,4144.00
2022-10-14T08:08:13.822Z,4832.00
2022-10-14T08:09:13.906Z,4832.00
2022-10-14T08:10:13.877Z,4928.00
2022-10-14T08:11:13.901Z,4512.00
2022-10-14T08:12:13.943Z,4824.00
2022-10-14T08:13:13.957Z,5472.00
2022-10-14T08:14:13.981Z,5356.00
2022-10-14T08:15:14.005Z,5584.00
2022-10-14T08:16:14.032Z,5740.00
2022-10-14T08:17:14.057Z,6152.00
2022-10-14T08:18:14.083Z,6588.00
2022-10-14T08:19:14.959Z,7076.00
2022-10-14T08:20:14.202Z,6004.00
2022-10-14T08:21:14.158Z,4680.00
2022-10-14T08:22:14.222Z,5056.00
2022-10-14T08:23:17.506Z,5720.00
2022-10-14T08:24:14.240Z,5584.00
2022-10-14T08:25:14.263Z,5252.00
2022-10-14T08:26:14.288Z,5656.00
2022-10-14T08:27:14.321Z,6200.00
2022-10-14T08:28:14.462Z,6544.00
2022-10-14T08:29:14.376Z,6860.00
2022-10-14T08:30:14.400Z,7688.00
2022-10-14T08:31:14.430Z,7532.00
2022-10-14T08:32:14.455Z,7128.00
2022-10-14T08:33:14.475Z,6816.00
2022-10-14T08:34:14.504Z,5804.00
2022-10-14T08:35:14.529Z,5244.00
2022-10-14T08:36:14.559Z,5768.00
2022-10-14T08:37:14.586Z,5804.00
2022-10-14T08:38:14.607Z,6036.00
2022-10-14T08:39:14.640Z,5380.00
2022-10-14T08:40:14.728Z,4716.00
2022-10-14T08:41:14.692Z,4608.00
2022-10-14T08:42:14.715Z,4772.00
2022-10-14T08:43:14.746Z,4464.00
2022-10-14T08:44:14.769Z,4692.00
2022-10-14T08:45:14.794Z,4272.00
2022-10-14T08:46:14.826Z,4456.00
2022-10-14T08:47:14.848Z,4280.00
2022-10-14T08:48:14.875Z,4236.00
2022-10-14T08:49:14.908Z,4268.00
2022-10-14T08:50:14.930Z,4120.00
2022-10-14T08:51:14.958Z,4340.00
2022-10-14T08:52:14.986Z,4812.00
2022-10-14T08:53:15.012Z,4936.00
2022-10-14T08:54:15.037Z,4804.00
2022-10-14T08:55:15.070Z,5156.00
2022-10-14T08:56:15.085Z,5312.00
2022-10-14T08:57:15.438Z,5480.00
2022-10-14T08:58:15.212Z,5488.00
2022-10-14T08:59:15.171Z,5544.00
2022-10-14T09:00:15.201Z,5536.00
2022-10-14T09:01:15.225Z,5392.00
2022-10-14T09:02:15.280Z,5120.00
2022-10-14T09:03:15.343Z,5192.00
2022-10-14T09:04:15.332Z,5652.00
2022-10-14T09:05:15.334Z,5996.00
2022-10-14T09:06:15.351Z,5600.00
2022-10-14T09:07:15.384Z,5460.00
2022-10-14T09:08:15.411Z,6016.00
2022-10-14T09:09:15.442Z,6716.00
2022-10-14T09:10:15.463Z,7164.00
2022-10-14T09:11:15.537Z,7740.00
2022-10-14T09:12:15.512Z,7948.00
2022-10-14T09:13:15.542Z,7896.00
2022-10-14T09:14:15.571Z,7892.00
2022-10-14T09:15:15.593Z,7504.00
2022-10-14T09:16:15.624Z,6764.00
2022-10-14T09:17:15.721Z,6388.00
2022-10-14T09:18:15.679Z,5740.00
2022-10-14T09:19:15.706Z,5040.00
2022-10-14T09:20:15.728Z,4952.00
2022-10-14T09:21:27.656Z,5384.00
2022-10-14T09:22:15.781Z,6228.00
2022-10-14T09:23:15.812Z,6724.00
2022-10-14T09:24:15.839Z,7232.00
2022-10-14T09:25:15.864Z,7712.00
2022-10-14T09:26:15.892Z,8724.00
2022-10-14T09:27:15.923Z,9244.00
2022-10-14T09:28:15.982Z,9520.00
2022-10-14T09:29:15.975Z,9544.00
2022-10-14T09:30:16.000Z,9732.00
2022-10-14T09:31:16.030Z,9888.00
2022-10-14T09:32:16.057Z,10076.00
2022-10-14T09:33:16.081Z,9916.00
2022-10-14T09:34:16.105Z,10012.00
2022-10-14T09:35:16.133Z,9908.00
2022-10-14T09:36:16.164Z,9928.00
2022-10-14T09:37:16.193Z,9484.00
2022-10-14T09:38:16.215Z,9280.00
2022-10-14T09:39:16.243Z,9004.00
2022-10-14T09:40:16.273Z,8548.00
2022-10-14T09:41:16.305Z,8420.00
2022-10-14T09:42:16.328Z,8544.00
2022-10-14T09:43:16.358Z,8196.00
2022-10-14T09:44:16.386Z,8136.00
2022-10-14T09:45:16.415Z,7748.00
2022-10-14T09:46:16.437Z,7100.00
2022-10-14T09:47:16.468Z,6504.00
2022-10-14T09:48:16.493Z,6100.00
2022-10-14T09:49:16.530Z,5828.00
2022-10-14T09:50:16.552Z,4892.00
2022-10-14T09:51:16.581Z,4664.00
2022-10-14T09:52:16.607Z,4372.00
2022-10-14T09:53:16.637Z,4980.00
2022-10-14T09:54:16.676Z,5040.00
2022-10-14T09:55:16.694Z,4636.00
2022-10-14T09:56:18.955Z,4716.00
2022-10-14T09:57:16.750Z,4948.00
2022-10-14T09:58:16.769Z,5220.00
2022-10-14T09:59:16.803Z,5680.00
2022-10-14T10:00:16.827Z,6136.00
2022-10-14T10:01:16.857Z,6624.00
2022-10-14T10:02:16.892Z,7080.00
2022-10-14T10:03:17.263Z,7420.00
2022-10-14T10:04:16.970Z,7732.00
2022-10-14T10:05:16.972Z,7836.00
2022-10-14T10:06:17.001Z,8388.00
2022-10-14T10:07:17.026Z,8852.00
2022-10-14T10:08:17.051Z,9224.00
2022-10-14T10:09:17.087Z,9480.00
2022-10-14T10:10:17.114Z,9688.00
2022-10-14T10:11:17.138Z,9884.00
2022-10-14T10:12:17.165Z,9916.00
2022-10-14T10:13:17.197Z,9916.00
2022-10-14T10:14:17.218Z,9984.00
2022-10-14T10:15:17.249Z,10236.00
2022-10-14T10:16:17.288Z,10156.00
2022-10-14T10:17:17.302Z,10452.00
2022-10-14T10:18:17.338Z,9804.00
2022-10-14T10:19:17.357Z,10156.00
2022-10-14T10:20:17.443Z,9896.00
2022-10-14T10:21:17.424Z,10172.00
2022-10-14T10:22:17.443Z,9944.00
2022-10-14T10:23:17.503Z,9764.00
2022-10-14T10:24:17.507Z,8580.00
2022-10-14T10:25:17.531Z,8408.00
2022-10-14T10:26:17.561Z,8220.00
2022-10-14T10:27:17.591Z,8472.00
2022-10-14T10:28:17.663Z,8504.00
2022-10-14T10:29:17.644Z,7256.00
2022-10-14T10:30:17.847Z,7740.00
2022-10-14T10:31:17.836Z,6832.00
2022-10-14T10:32:17.735Z,6784.00
2022-10-14T10:33:17.760Z,5508.00
2022-10-14T10:34:17.787Z,5348.00
2022-10-14T10:35:17.815Z,6308.00
2022-10-14T10:37:17.874Z,6556.00
2022-10-14T10:38:17.903Z,6120.00
2022-10-14T10:39:17.937Z,6956.00
2022-10-14T10:40:18.035Z,9176.00
2022-10-14T10:41:17.986Z,7204.00
2022-10-14T10:42:18.017Z,6864.00
2022-10-14T10:43:18.047Z,6420.00
2022-10-14T10:44:18.075Z,5620.00
2022-10-14T10:45:18.106Z,5136.00
2022-10-14T10:46:18.129Z,5324.00
2022-10-14T10:47:18.162Z,5060.00
2022-10-14T10:48:18.191Z,4248.00
2022-10-14T10:49:18.221Z,3816.00
2022-10-14T10:50:18.242Z,4132.00
2022-10-14T10:51:18.276Z,4372.00
2022-10-14T10:52:21.214Z,5576.00
2022-10-14T10:53:18.331Z,5280.00
2022-10-14T10:54:18.364Z,4976.00
2022-10-14T10:55:18.388Z,5044.00
2022-10-14T10:56:18.429Z,5572.00
2022-10-14T10:57:18.542Z,5972.00
2022-10-14T10:58:18.475Z,6444.00
2022-10-14T11:00:18.718Z,6516.00
2022-10-14T11:01:18.604Z,6528.00
2022-10-14T11:02:18.683Z,6504.00
2022-10-14T11:03:18.624Z,7316.00
2022-10-14T11:04:18.648Z,5844.00
2022-10-14T11:05:18.675Z,5936.00
2022-10-14T11:06:18.703Z,6248.00
2022-10-14T11:07:18.731Z,5728.00
2022-10-14T11:08:18.761Z,6400.00
2022-10-14T11:09:18.790Z,6744.00
2022-10-14T11:10:18.816Z,7208.00
2022-10-14T11:11:18.841Z,8012.00
2022-10-14T11:12:19.028Z,8724.00
2022-10-14T11:13:18.900Z,8492.00
2022-10-14T11:14:18.930Z,7708.00
2022-10-14T11:16:18.987Z,8140.00
2022-10-14T11:17:19.206Z,7812.00
2022-10-14T11:18:19.043Z,7240.00
2022-10-14T11:19:19.074Z,6872.00
2022-10-14T11:20:19.105Z,7328.00
2022-10-14T11:21:19.129Z,7396.00
2022-10-14T11:22:19.495Z,7244.00
2022-10-14T11:23:19.186Z,7556.00
2022-10-14T11:24:19.278Z,8100.00
2022-10-14T11:25:19.242Z,7928.00
2022-10-14T11:26:19.272Z,6276.00
2022-10-14T11:27:22.349Z,5996.00
2022-10-14T11:28:19.385Z,6740.00
2022-10-14T11:29:19.369Z,8584.00
2022-10-14T11:30:19.390Z,7316.00
2022-10-14T11:31:19.414Z,6320.00
2022-10-14T11:32:19.447Z,5116.00
2022-10-14T11:33:19.474Z,5516.00
2022-10-14T11:34:19.498Z,6164.00
2022-10-14T11:35:19.559Z,6312.00
2022-10-14T11:36:19.555Z,6556.00
2022-10-14T11:37:19.787Z,7664.00
2022-10-14T11:38:19.612Z,7512.00
2022-10-14T11:39:19.641Z,7748.00
2022-10-14T11:40:19.675Z,7132.00
2022-10-14T11:41:19.700Z,6556.00
2022-10-14T11:42:20.020Z,5648.00
2022-10-14T11:43:19.765Z,5428.00
2022-10-14T11:44:19.792Z,5432.00
2022-10-14T11:45:21.354Z,4396.00
2022-10-14T11:46:19.856Z,4852.00
2022-10-14T11:47:20.248Z,5360.00
2022-10-14T11:48:19.903Z,5512.00
2022-10-14T11:49:19.933Z,5512.00
2022-10-14T11:50:19.963Z,5140.00
2022-10-14T11:51:19.990Z,6576.00
2022-10-14T11:52:20.019Z,7872.00
2022-10-14T11:53:20.050Z,7720.00
2022-10-14T11:54:20.075Z,6240.00
2022-10-14T11:55:20.107Z,4528.00
2022-10-14T11:56:20.145Z,4516.00
2022-10-14T11:57:20.538Z,6756.00
2022-10-14T11:58:20.191Z,7916.00
2022-10-14T11:59:20.216Z,7480.00
2022-10-14T12:00:20.288Z,6780.00
2022-10-14T12:01:20.277Z,6828.00
2022-10-14T12:02:20.943Z,6436.00
2022-10-14T12:03:20.335Z,6388.00
2022-10-14T12:04:20.362Z,6864.00
2022-10-14T12:05:20.389Z,6640.00
2022-10-14T12:06:20.417Z,6328.00
2022-10-14T12:07:20.451Z,7284.00
2022-10-14T12:08:20.478Z,8596.00
2022-10-14T12:09:20.509Z,9764.00
2022-10-14T12:10:20.534Z,9728.00
2022-10-14T12:11:20.565Z,9628.00
2022-10-14T12:12:20.914Z,8684.00
2022-10-14T12:13:20.622Z,8460.00
2022-10-14T12:14:20.667Z,9116.00
2022-10-14T12:15:20.717Z,8896.00
2022-10-14T12:16:20.708Z,9436.00
2022-10-14T12:17:21.122Z,8336.00
2022-10-14T12:18:20.768Z,7604.00
2022-10-14T12:19:20.793Z,7484.00
2022-10-14T12:20:20.822Z,8640.00
2022-10-14T12:21:20.855Z,8468.00
2022-10-14T12:22:21.124Z,7648.00
2022-10-14T12:23:20.913Z,7652.00
2022-10-14T12:24:20.938Z,7884.00
2022-10-14T12:25:20.973Z,7660.00
2022-10-14T12:26:20.995Z,7668.00
2022-10-14T12:27:21.030Z,8212.00
2022-10-14T12:28:21.123Z,8384.00
2022-10-14T12:29:21.086Z,8048.00
2022-10-14T12:30:21.120Z,7816.00
2022-10-14T12:31:21.144Z,7700.00
2022-10-14T12:32:21.773Z,7328.00
2022-10-14T12:33:23.067Z,6720.00
2022-10-14T12:34:21.235Z,6404.00
2022-10-14T12:35:21.261Z,6364.00
2022-10-14T12:36:21.293Z,5836.00
2022-10-14T12:37:24.515Z,5440.00
2022-10-14T12:38:21.350Z,5164.00
2022-10-14T12:39:21.386Z,4800.00
2022-10-14T12:40:21.412Z,4968.00
2022-10-14T12:41:21.441Z,4636.00
2022-10-14T12:42:21.701Z,4472.00
2022-10-14T12:43:21.502Z,4524.00
2022-10-14T12:44:21.526Z,4676.00
2022-10-14T12:45:21.572Z,4616.00